Time;durP1;ratioP1;P1;durP2;ratioP2;P2;SDS_P1;SDS_P2;PMS_P1;PMS_P2;Temp;Humidity;BMP_temperature;BMP_pressure;BME280_temperature;BME280_humidity;BME280_pressure;Samples;Min_cycle;Max_cycle;Signal;HPM_P1;HPM_P2
2022/03/29 00:00:33;;;;;;;39.72;25.40;;;6.90;99.90;;;;;;5029623;28;20436;-83
2022/03/29 00:02:59;;;;;;;38.30;24.42;;;7.00;99.90;;;;;;4996542;28;20478;-84
2022/03/29 00:05:26;;;;;;;35.30;21.67;;;7.00;99.90;;;;;;5013114;28;20044;-83
2022/03/29 00:07:52;;;;;;;35.42;22.80;;;7.10;99.90;;;;;;4997060;28;20093;-82
2022/03/29 00:10:17;;;;;;;30.77;19.95;;;7.10;99.90;;;;;;5030076;28;20501;-83
2022/03/29 00:12:43;;;;;;;35.78;23.15;;;7.20;99.90;;;;;;5017234;28;20163;-83
2022/03/29 00:15:09;;;;;;;33.40;20.52;;;7.20;99.90;;;;;;5016908;28;20191;-84
2022/03/29 00:17:35;;;;;;;38.63;22.05;;;7.30;99.90;;;;;;5017250;28;20117;-84
2022/03/29 00:20:01;;;;;;;36.38;23.00;;;7.20;99.90;;;;;;5040894;28;20076;-83
2022/03/29 00:22:26;;;;;;;43.08;22.25;;;7.10;99.90;;;;;;5020458;28;20054;-82
2022/03/29 00:24:52;;;;;;;36.38;22.50;;;7.70;99.90;;;;;;5011064;28;20085;-82
2022/03/29 00:27:17;;;;;;;39.55;23.85;;;7.10;99.90;;;;;;5017076;28;20038;-82
2022/03/29 00:29:43;;;;;;;36.50;23.60;;;6.90;99.90;;;;;;4998031;28;20050;-82
2022/03/29 00:32:10;;;;;;;33.95;22.15;;;6.80;99.90;;;;;;4996562;28;20068;-83
2022/03/29 00:34:37;;;;;;;35.63;21.25;;;7.10;99.90;;;;;;4997300;28;20169;-83
2022/03/29 00:37:04;;;;;;;32.42;19.85;;;7.50;99.90;;;;;;5012815;28;20046;-83
2022/03/29 00:39:29;;;;;;;39.38;22.25;;;7.00;99.90;;;;;;5013540;28;20082;-82
2022/03/29 00:41:56;;;;;;;36.30;22.33;;;7.00;99.90;;;;;;5012677;28;20153;-82
2022/03/29 00:44:31;;;;;;;33.08;22.27;;;6.90;99.90;;;;;;4964567;28;20072;-83
2022/03/29 00:46:58;;;;;;;32.42;21.40;;;6.90;99.90;;;;;;4997125;28;20049;-81
2022/03/29 00:49:24;;;;;;;32.83;21.85;;;6.80;99.90;;;;;;4996658;28;20092;-82
2022/03/29 00:51:58;;;;;;;34.03;21.90;;;6.90;99.90;;;;;;4996465;28;20058;-84
2022/03/29 00:54:32;;;;;;;36.07;22.07;;;6.90;99.90;;;;;;4998264;28;20061;-83
2022/03/29 00:56:58;;;;;;;39.30;22.42;;;6.80;99.90;;;;;;5012646;28;20834;-81
2022/03/29 00:59:25;;;;;;;33.80;21.55;;;7.00;99.90;;;;;;4996747;28;20093;-82
2022/03/29 01:01:51;;;;;;;33.90;21.98;;;6.80;99.90;;;;;;4996971;28;20479;-82
2022/03/29 01:04:17;;;;;;;37.97;22.88;;;6.80;99.90;;;;;;4996431;28;20064;-82
2022/03/29 01:06:43;;;;;;;34.50;22.42;;;6.90;99.90;;;;;;5013125;28;20418;-82
2022/03/29 01:09:10;;;;;;;31.90;21.67;;;6.80;99.90;;;;;;5028621;28;20053;-82
2022/03/29 01:11:36;;;;;;;41.80;23.42;;;6.80;99.90;;;;;;5012631;28;20497;-82
2022/03/29 01:14:02;;;;;;;34.42;22.35;;;7.70;99.90;;;;;;5013728;28;20490;-83
2022/03/29 01:19:12;;;;;;;33.20;21.52;;;6.90;99.90;;;;;;4998966;28;20499;-82
2022/03/29 01:21:39;;;;;;;34.92;22.77;;;6.90;99.90;;;;;;4995258;28;20049;-82
2022/03/29 01:24:05;;;;;;;38.58;21.83;;;6.90;99.90;;;;;;5011554;28;20132;-83
2022/03/29 01:26:30;;;;;;;38.97;22.98;;;6.90;99.90;;;;;;4995326;28;20590;-83
2022/03/29 01:28:56;;;;;;;38.50;22.77;;;6.90;99.90;;;;;;4979230;28;20046;-83
2022/03/29 01:31:22;;;;;;;35.63;22.23;;;6.90;99.90;;;;;;4995174;28;20564;-83
2022/03/29 01:33:47;;;;;;;32.97;22.25;;;7.40;99.90;;;;;;4979416;28;20053;-83
2022/03/29 01:36:13;;;;;;;36.65;22.77;;;6.80;99.90;;;;;;4995257;28;20100;-83
2022/03/29 01:38:40;;;;;;;35.50;22.55;;;6.90;99.90;;;;;;5011042;28;20089;-83
2022/03/29 01:41:05;;;;;;;33.42;22.00;;;6.90;99.90;;;;;;5012535;28;20054;-83
2022/03/29 01:43:34;;;;;;;33.28;20.92;;;6.90;99.90;;;;;;4979049;28;20108;-83
2022/03/29 01:46:00;;;;;;;33.25;21.92;;;6.90;99.90;;;;;;5011369;28;20125;-82
2022/03/29 01:48:26;;;;;;;32.03;22.23;;;6.90;99.90;;;;;;4994718;28;20100;-83
2022/03/29 01:50:51;;;;;;;38.70;23.13;;;7.00;99.90;;;;;;4995096;28;20061;-83
2022/03/29 01:53:24;;;;;;;34.92;21.85;;;7.00;99.90;;;;;;5010628;28;20045;-84
2022/03/29 01:55:57;;;;;;;36.20;22.00;;;6.90;99.90;;;;;;5011252;28;20041;-84
2022/03/29 01:58:24;;;;;;;37.20;22.65;;;6.90;99.90;;;;;;4962872;28;20054;-83
2022/03/29 02:00:50;;;;;;;35.30;22.42;;;7.00;99.90;;;;;;5012509;28;20049;-82
2022/03/29 02:03:15;;;;;;;32.40;22.13;;;7.00;99.90;;;;;;4994774;28;20050;-82
2022/03/29 02:05:41;;;;;;;38.13;22.65;;;6.90;99.90;;;;;;5012142;28;20541;-83
2022/03/29 02:08:07;;;;;;;41.00;22.42;;;6.90;99.90;;;;;;4994190;28;20398;-81
2022/03/29 02:10:33;;;;;;;39.08;22.92;;;6.90;99.90;;;;;;5012442;28;20057;-83
2022/03/29 02:12:59;;;;;;;35.65;22.50;;;6.90;99.90;;;;;;5011030;28;20057;-83
2022/03/29 02:15:24;;;;;;;38.90;23.00;;;6.90;99.90;;;;;;4994717;28;20065;-83
2022/03/29 02:17:50;;;;;;;36.25;22.58;;;7.10;99.90;;;;;;5010700;28;20050;-83
2022/03/29 02:20:17;;;;;;;37.13;23.13;;;7.00;99.90;;;;;;5010431;28;20049;-83
2022/03/29 02:22:43;;;;;;;37.03;22.75;;;7.00;99.90;;;;;;4978848;28;20058;-83
2022/03/29 02:25:10;;;;;;;38.58;24.27;;;7.20;99.90;;;;;;4994515;28;20046;-82
2022/03/29 02:27:38;;;;;;;37.63;23.38;;;6.90;99.90;;;;;;5010713;28;20081;-82
2022/03/29 02:30:05;;;;;;;37.45;23.27;;;7.00;99.90;;;;;;5012116;28;20115;-83
2022/03/29 02:32:31;;;;;;;34.55;22.92;;;6.90;99.90;;;;;;5010227;28;20050;-83
2022/03/29 02:34:57;;;;;;;34.80;22.50;;;6.90;99.90;;;;;;5010719;28;20053;-83
2022/03/29 02:37:23;;;;;;;36.63;22.25;;;6.80;99.90;;;;;;5013693;28;20068;-82
2022/03/29 02:39:49;;;;;;;37.22;22.75;;;6.90;99.90;;;;;;5005336;28;20120;-82
2022/03/29 02:42:15;;;;;;;40.63;22.75;;;7.30;99.90;;;;;;5025432;28;20049;-82
2022/03/29 02:44:41;;;;;;;39.67;22.98;;;7.10;99.90;;;;;;5030864;28;20077;-83
2022/03/29 02:47:06;;;;;;;39.28;24.67;;;7.00;99.90;;;;;;5023378;28;20125;-82
2022/03/29 02:49:32;;;;;;;36.58;22.85;;;6.90;99.90;;;;;;5013892;28;20474;-82
2022/03/29 02:51:58;;;;;;;39.33;23.23;;;6.90;99.90;;;;;;5011682;28;20050;-83
2022/03/29 02:54:24;;;;;;;44.67;26.33;;;7.70;99.90;;;;;;4978122;28;20049;-83
2022/03/29 02:56:50;;;;;;;41.15;25.13;;;7.70;99.90;;;;;;5027572;28;20061;-83
2022/03/29 02:59:15;;;;;;;40.28;24.77;;;6.90;99.90;;;;;;5010715;28;20059;-82
2022/03/29 03:01:41;;;;;;;41.13;24.70;;;6.80;99.90;;;;;;5010650;28;20045;-83
2022/03/29 03:04:07;;;;;;;39.00;24.95;;;6.90;99.90;;;;;;5011007;28;20081;-83
2022/03/29 03:06:33;;;;;;;42.38;24.92;;;6.90;99.90;;;;;;4994106;28;20049;-83
2022/03/29 03:09:00;;;;;;;42.17;26.13;;;7.00;99.90;;;;;;4994553;28;20437;-82
2022/03/29 03:11:28;;;;;;;42.70;26.38;;;6.90;99.90;;;;;;4994505;28;20129;-84
2022/03/29 03:13:54;;;;;;;47.30;26.38;;;6.80;99.90;;;;;;5010893;28;20137;-83
2022/03/29 03:16:20;;;;;;;48.75;28.27;;;6.90;99.90;;;;;;5010950;28;20478;-83
2022/03/29 03:18:45;;;;;;;42.88;26.00;;;6.90;99.90;;;;;;5010724;28;20050;-83
2022/03/29 03:21:11;;;;;;;44.97;26.52;;;7.70;99.90;;;;;;5026707;28;20133;-83
2022/03/29 03:23:37;;;;;;;44.58;26.75;;;6.90;99.90;;;;;;5010051;28;20340;-83
2022/03/29 03:26:02;;;;;;;46.20;27.02;;;6.80;99.90;;;;;;5010304;28;20034;-83
2022/03/29 03:28:28;;;;;;;41.33;26.45;;;6.90;99.90;;;;;;5011018;28;20088;-83
2022/03/29 03:30:54;;;;;;;47.47;27.65;;;7.00;99.90;;;;;;5027007;28;20054;-83
2022/03/29 03:33:20;;;;;;;41.30;25.63;;;6.90;99.90;;;;;;5011784;28;20129;-83
2022/03/29 03:35:46;;;;;;;44.05;26.13;;;6.90;99.90;;;;;;4994538;28;20137;-83
2022/03/29 03:38:11;;;;;;;46.53;25.92;;;7.00;99.90;;;;;;4977860;28;20066;-83
2022/03/29 03:40:37;;;;;;;45.72;27.13;;;7.10;99.90;;;;;;5009428;28;20064;-83
2022/03/29 03:43:03;;;;;;;44.10;27.75;;;7.00;99.90;;;;;;4993997;28;20108;-83
2022/03/29 03:45:29;;;;;;;48.22;27.25;;;6.90;99.90;;;;;;5011632;28;20049;-82
2022/03/29 03:47:55;;;;;;;48.20;26.60;;;6.80;99.90;;;;;;5008832;28;20061;-82
2022/03/29 03:50:21;;;;;;;50.53;27.02;;;6.80;99.90;;;;;;5017850;28;20060;-84
2022/03/29 03:52:46;;;;;;;48.80;28.30;;;6.80;99.90;;;;;;5016125;28;20045;-82
2022/03/29 03:55:12;;;;;;;46.55;27.65;;;6.80;99.90;;;;;;5017566;28;20073;-83
2022/03/29 03:57:38;;;;;;;48.88;28.55;;;6.80;99.90;;;;;;5008165;28;20042;-83
2022/03/29 04:00:06;;;;;;;52.50;28.42;;;6.90;99.90;;;;;;5000593;28;20033;-82
2022/03/29 04:02:32;;;;;;;48.90;27.85;;;6.90;99.90;;;;;;4983057;28;20402;-83
2022/03/29 04:04:57;;;;;;;51.95;28.05;;;6.80;99.90;;;;;;5014765;28;20077;-83
2022/03/29 04:07:23;;;;;;;49.33;29.05;;;6.80;99.90;;;;;;5014509;28;20053;-82
2022/03/29 04:09:49;;;;;;;51.00;28.23;;;6.80;99.90;;;;;;5031557;28;20129;-82
2022/03/29 04:12:14;;;;;;;47.83;27.52;;;6.80;99.90;;;;;;5014974;28;20520;-83
2022/03/29 04:14:40;;;;;;;52.60;29.35;;;6.90;99.90;;;;;;4998244;28;20529;-82
2022/03/29 04:17:06;;;;;;;47.35;28.27;;;6.90;99.90;;;;;;5014913;28;20124;-83
2022/03/29 04:19:31;;;;;;;47.90;28.90;;;6.80;99.90;;;;;;5014069;28;20546;-82
2022/03/29 04:21:57;;;;;;;45.05;29.17;;;6.80;99.90;;;;;;5014567;28;20038;-82
2022/03/29 04:24:22;;;;;;;44.88;28.50;;;7.40;99.90;;;;;;5013743;28;20053;-82
2022/03/29 04:26:49;;;;;;;48.92;28.52;;;7.10;99.90;;;;;;5014069;28;20089;-82
2022/03/29 04:29:15;;;;;;;46.90;28.48;;;6.70;99.90;;;;;;4997655;28;20077;-84
2022/03/29 04:31:41;;;;;;;54.03;28.38;;;6.70;99.90;;;;;;5030085;28;20085;-84
2022/03/29 04:34:06;;;;;;;47.10;27.95;;;6.80;99.90;;;;;;4997552;28;20053;-83
2022/03/29 04:36:32;;;;;;;49.28;29.17;;;7.00;99.90;;;;;;4980303;28;20073;-83
2022/03/29 04:38:58;;;;;;;49.30;28.23;;;6.80;99.90;;;;;;5012558;28;20064;-83
2022/03/29 04:41:26;;;;;;;49.58;28.65;;;6.80;99.90;;;;;;5013324;28;20516;-83
2022/03/29 04:43:52;;;;;;;49.50;28.48;;;6.80;99.90;;;;;;5012915;28;20050;-83
2022/03/29 04:46:18;;;;;;;53.95;29.27;;;6.80;99.90;;;;;;5013836;28;20103;-83
2022/03/29 04:48:44;;;;;;;57.40;27.85;;;6.80;99.90;;;;;;5028930;28;20501;-83
2022/03/29 04:51:10;;;;;;;50.63;28.75;;;6.90;99.90;;;;;;5029373;28;20049;-83
2022/03/29 04:53:36;;;;;;;51.63;29.27;;;6.90;99.90;;;;;;5012758;28;20054;-83
2022/03/29 04:56:02;;;;;;;45.10;27.48;;;7.00;99.90;;;;;;5029337;28;20049;-83
2022/03/29 04:58:27;;;;;;;49.53;28.33;;;6.80;99.90;;;;;;4995618;28;20394;-83
2022/03/29 05:00:53;;;;;;;53.47;28.92;;;6.80;99.90;;;;;;5012660;28;20499;-83
2022/03/29 05:03:19;;;;;;;50.63;28.33;;;6.80;99.90;;;;;;5020681;28;20100;-84
2022/03/29 05:05:45;;;;;;;48.63;28.35;;;6.90;99.90;;;;;;5014193;28;20058;-82
2022/03/29 05:08:10;;;;;;;48.95;28.80;;;7.00;99.90;;;;;;5023424;28;20053;-82
2022/03/29 05:10:36;;;;;;;53.38;28.80;;;6.90;99.90;;;;;;5013755;28;20052;-83
2022/03/29 05:13:02;;;;;;;54.92;28.05;;;7.00;99.90;;;;;;5012981;28;20479;-83
2022/03/29 05:15:27;;;;;;;49.00;28.45;;;6.80;99.90;;;;;;5012885;28;20445;-83
2022/03/29 05:17:53;;;;;;;57.17;27.98;;;6.80;99.90;;;;;;5012407;28;20061;-82
2022/03/29 05:20:19;;;;;;;49.03;28.05;;;6.90;99.90;;;;;;4996717;28;20042;-82
2022/03/29 05:22:46;;;;;;;46.80;28.13;;;6.90;99.90;;;;;;4996156;28;20111;-83
2022/03/29 05:25:16;;;;;;;47.83;27.70;;;6.70;99.90;;;;;;4980054;28;20058;-82
2022/03/29 05:27:42;;;;;;;55.83;29.10;;;7.20;99.90;;;;;;5011729;28;20049;-82
2022/03/29 05:30:09;;;;;;;54.58;28.92;;;6.70;99.90;;;;;;4996106;28;20077;-84
2022/03/29 05:32:34;;;;;;;56.97;30.52;;;6.70;99.90;;;;;;4979442;28;20053;-82
2022/03/29 05:35:00;;;;;;;51.50;29.23;;;6.70;99.90;;;;;;4979854;28;20504;-83
2022/03/29 05:37:26;;;;;;;56.30;29.35;;;6.70;99.90;;;;;;4995532;28;20505;-84
2022/03/29 05:39:51;;;;;;;52.30;28.73;;;6.70;99.90;;;;;;4999220;28;20164;-84
2022/03/29 05:42:17;;;;;;;54.90;27.90;;;6.70;99.90;;;;;;5007014;28;20050;-82
2022/03/29 05:44:43;;;;;;;50.35;28.00;;;6.80;99.90;;;;;;5013172;28;20058;-83
2022/03/29 05:49:53;;;;;;;54.13;28.85;;;7.10;99.90;;;;;;5019774;28;20921;-82
2022/03/29 05:52:21;;;;;;;52.60;29.42;;;6.90;99.90;;;;;;5013712;28;20073;-82
2022/03/29 05:54:47;;;;;;;48.17;26.92;;;7.00;99.90;;;;;;5011892;28;20093;-83
2022/03/29 05:57:16;;;;;;;45.42;27.67;;;7.10;99.90;;;;;;5011579;28;20157;-83
2022/03/29 05:59:45;;;;;;;50.88;27.48;;;7.70;99.90;;;;;;4995246;28;20133;-82
2022/03/29 06:02:11;;;;;;;48.05;27.30;;;7.10;99.90;;;;;;5011418;28;20506;-83
2022/03/29 06:04:37;;;;;;;48.03;27.23;;;7.10;99.90;;;;;;4978792;28;20058;-83
2022/03/29 06:07:04;;;;;;;52.80;28.85;;;7.00;99.90;;;;;;5011458;28;20054;-82
2022/03/29 06:09:30;;;;;;;50.25;27.92;;;7.00;99.90;;;;;;5011238;28;20049;-83
2022/03/29 06:11:56;;;;;;;50.80;28.15;;;6.90;99.90;;;;;;5011055;28;20528;-84
2022/03/29 06:14:22;;;;;;;53.13;29.15;;;6.90;99.90;;;;;;5011441;28;20121;-83
2022/03/29 06:16:48;;;;;;;53.17;27.40;;;6.90;99.90;;;;;;4993720;28;20053;-83
2022/03/29 06:19:14;;;;;;;51.33;26.98;;;7.00;99.90;;;;;;5012334;28;20091;-83
2022/03/29 06:21:40;;;;;;;48.63;27.52;;;7.10;99.90;;;;;;5011524;28;20053;-83
2022/03/29 06:24:07;;;;;;;57.65;27.75;;;7.00;99.90;;;;;;4994918;28;20500;-83
2022/03/29 06:26:36;;;;;;;45.65;26.40;;;7.00;99.90;;;;;;4994382;28;20038;-83
2022/03/29 06:29:03;;;;;;;47.08;25.85;;;7.10;99.90;;;;;;5010645;28;20538;-82
2022/03/29 06:31:28;;;;;;;49.05;26.50;;;7.00;99.90;;;;;;5012135;28;20082;-82
2022/03/29 06:33:54;;;;;;;49.92;26.10;;;7.10;99.90;;;;;;5010360;28;20054;-83
2022/03/29 06:36:21;;;;;;;49.45;28.45;;;7.10;99.90;;;;;;5010872;28;20446;-83
2022/03/29 06:38:47;;;;;;;47.05;27.33;;;7.10;99.90;;;;;;5010030;28;20112;-82
2022/03/29 06:41:13;;;;;;;48.22;26.92;;;7.20;99.90;;;;;;4994886;28;20100;-82
2022/03/29 06:43:42;;;;;;;50.30;28.38;;;7.20;99.90;;;;;;4978555;28;20052;-82
2022/03/29 06:46:09;;;;;;;47.20;26.45;;;7.30;99.90;;;;;;4994055;28;20054;-82
2022/03/29 06:48:35;;;;;;;47.15;25.52;;;7.30;99.90;;;;;;5011558;28;20420;-82
2022/03/29 06:51:01;;;;;;;49.70;26.42;;;7.50;99.90;;;;;;5009733;28;20066;-82
2022/03/29 06:53:27;;;;;;;54.17;27.45;;;7.40;99.90;;;;;;4979224;28;20049;-82
2022/03/29 06:55:53;;;;;;;49.55;27.00;;;6.70;99.90;;;;;;5013690;28;20057;-81
2022/03/29 06:58:19;;;;;;;45.03;26.48;;;7.40;99.90;;;;;;5031400;28;20056;-82
2022/03/29 07:00:45;;;;;;;46.65;27.50;;;7.40;99.90;;;;;;5013381;28;20057;-82
2022/03/29 07:03:10;;;;;;;53.33;27.63;;;7.30;99.90;;;;;;5013347;28;20064;-81
2022/03/29 07:05:38;;;;;;;51.22;27.48;;;8.30;99.90;;;;;;5015607;28;20113;-81
2022/03/29 07:08:05;;;;;;;47.97;28.33;;;7.40;99.90;;;;;;5028490;28;20089;-83
2022/03/29 07:13:16;;;;;;;49.03;28.65;;;7.40;99.90;;;;;;5017551;28;20500;-80
2022/03/29 07:15:42;;;;;;;53.60;29.05;;;7.50;99.90;;;;;;5031350;28;20054;-81
2022/03/29 07:18:08;;;;;;;52.33;28.73;;;7.50;99.90;;;;;;5013360;28;20474;-81
2022/03/29 07:20:33;;;;;;;55.22;26.95;;;7.50;99.90;;;;;;5025879;28;20049;-81
2022/03/29 07:22:59;;;;;;;49.55;26.80;;;7.60;99.90;;;;;;5016567;28;20041;-82
2022/03/29 07:25:27;;;;;;;46.20;25.48;;;7.70;99.90;;;;;;5050163;28;20044;-82
2022/03/29 07:27:53;;;;;;;50.53;26.42;;;7.70;99.90;;;;;;5033161;28;20076;-81
2022/03/29 07:30:20;;;;;;;46.75;25.52;;;7.60;99.90;;;;;;5020140;28;20049;-83
2022/03/29 07:32:51;;;;;;;46.88;26.40;;;7.60;99.90;;;;;;5029835;28;20048;-82
2022/03/29 07:35:19;;;;;;;48.80;26.60;;;7.70;99.90;;;;;;4996405;28;20101;-82
2022/03/29 07:37:45;;;;;;;43.90;26.08;;;7.70;99.90;;;;;;4992374;28;20049;-82
2022/03/29 07:40:12;;;;;;;48.38;27.95;;;7.60;99.90;;;;;;4991682;28;20397;-82
2022/03/29 07:42:37;;;;;;;48.90;25.60;;;7.60;99.90;;;;;;5011823;28;20045;-82
2022/03/29 07:45:07;;;;;;;48.13;24.90;;;7.60;99.90;;;;;;5011751;28;20050;-82
2022/03/29 07:47:34;;;;;;;47.03;24.13;;;7.80;99.90;;;;;;5012408;28;20045;-82
2022/03/29 07:50:04;;;;;;;48.10;25.77;;;7.90;99.90;;;;;;4996245;28;20136;-82
2022/03/29 07:52:30;;;;;;;47.88;24.65;;;8.00;99.90;;;;;;5026808;28;20085;-82
2022/03/29 07:54:55;;;;;;;43.25;24.98;;;7.90;99.90;;;;;;5012655;28;20099;-83
2022/03/29 07:57:21;;;;;;;40.90;22.95;;;7.90;99.90;;;;;;5029900;28;20053;-82
2022/03/29 07:59:52;;;;;;;44.35;24.80;;;8.00;99.90;;;;;;5028989;28;20072;-82
2022/03/29 08:02:18;;;;;;;39.85;22.75;;;7.90;99.90;;;;;;5009997;28;20038;-83
2022/03/29 08:04:44;;;;;;;46.22;23.83;;;8.10;99.90;;;;;;5025849;28;20549;-82
2022/03/29 08:07:09;;;;;;;41.25;23.48;;;8.90;99.90;;;;;;5028681;28;20050;-83
2022/03/29 08:09:35;;;;;;;38.22;22.13;;;8.00;99.90;;;;;;5011161;28;20042;-83
2022/03/29 08:12:01;;;;;;;38.72;22.30;;;8.20;99.90;;;;;;5026906;28;20103;-83
2022/03/29 08:14:26;;;;;;;40.92;21.88;;;8.20;99.90;;;;;;5012433;28;20049;-83
2022/03/29 08:16:56;;;;;;;41.10;22.40;;;8.30;99.90;;;;;;4995359;28;20034;-84
2022/03/29 08:19:22;;;;;;;37.45;21.50;;;8.50;99.90;;;;;;4993252;28;20061;-83
2022/03/29 08:21:49;;;;;;;46.05;23.40;;;8.50;99.90;;;;;;5012529;28;20033;-84
2022/03/29 08:24:19;;;;;;;50.10;26.55;;;8.50;99.90;;;;;;5008378;28;20066;-83
2022/03/29 08:26:46;;;;;;;40.40;23.13;;;8.60;99.90;;;;;;5006514;28;20061;-82
2022/03/29 08:29:12;;;;;;;40.53;24.38;;;8.70;99.90;;;;;;5011108;28;20444;-82
2022/03/29 08:31:40;;;;;;;38.33;23.45;;;8.90;99.90;;;;;;5026835;28;20057;-82
2022/03/29 08:34:07;;;;;;;39.08;22.73;;;8.80;99.90;;;;;;5015560;28;20093;-83
2022/03/29 08:36:33;;;;;;;40.00;21.83;;;8.80;99.90;;;;;;5015996;28;20042;-82
2022/03/29 08:39:03;;;;;;;38.38;20.52;;;9.00;99.90;;;;;;5010431;28;20057;-83
2022/03/29 08:41:39;;;;;;;46.55;22.70;;;9.30;99.90;;;;;;5032819;28;20056;-82
2022/03/29 08:44:06;;;;;;;38.85;23.73;;;9.30;99.90;;;;;;5020727;28;20489;-82
2022/03/29 08:46:35;;;;;;;41.72;23.50;;;9.20;99.90;;;;;;5018722;28;20050;-81
2022/03/29 08:49:02;;;;;;;38.55;22.60;;;9.40;99.90;;;;;;5031271;28;20482;-82
2022/03/29 08:51:28;;;;;;;37.53;23.08;;;9.30;99.90;;;;;;5033786;28;20504;-82
2022/03/29 08:53:53;;;;;;;43.25;24.85;;;9.20;99.90;;;;;;5025381;28;20049;-84
2022/03/29 08:56:19;;;;;;;44.53;25.38;;;9.10;99.90;;;;;;5033099;28;20157;-85
2022/03/29 08:58:45;;;;;;;37.60;22.88;;;9.00;99.90;;;;;;5016956;28;20081;-82
2022/03/29 09:01:10;;;;;;;45.05;23.75;;;9.80;99.90;;;;;;5013698;28;20452;-82
2022/03/29 09:03:42;;;;;;;43.53;23.17;;;9.30;99.90;;;;;;5029558;28;20099;-83
2022/03/29 09:06:08;;;;;;;41.38;21.35;;;9.40;99.90;;;;;;5031696;28;20053;-83
2022/03/29 09:08:47;;;;;;;43.60;24.25;;;9.40;99.90;;;;;;4999620;28;20060;-84
2022/03/29 09:11:13;;;;;;;43.42;23.92;;;9.40;99.90;;;;;;4999590;28;20398;-84
2022/03/29 09:13:40;;;;;;;38.30;22.92;;;9.40;99.90;;;;;;4999479;28;20051;-84
2022/03/29 09:16:10;;;;;;;38.85;20.90;;;9.40;99.90;;;;;;4998088;28;20081;-82
2022/03/29 09:18:37;;;;;;;36.40;20.30;;;9.60;99.90;;;;;;5015771;28;20056;-82
2022/03/29 09:21:11;;;;;;;42.10;22.65;;;9.70;99.90;;;;;;5031204;28;20084;-82
2022/03/29 09:23:37;;;;;;;37.33;19.50;;;9.50;99.90;;;;;;5032371;28;20584;-82
2022/03/29 09:26:03;;;;;;;39.83;23.08;;;9.70;99.90;;;;;;5033313;28;20493;-82
2022/03/29 09:28:38;;;;;;;43.38;26.00;;;9.40;99.90;;;;;;5015638;28;20038;-82
2022/03/29 09:31:22;;;;;;;37.03;24.00;;;9.40;99.90;;;;;;4999052;28;20498;-82
2022/03/29 09:33:49;;;;;;;39.45;23.30;;;9.30;99.90;;;;;;5016027;28;20053;-82
2022/03/29 09:36:20;;;;;;;39.80;24.58;;;9.30;99.90;;;;;;5015669;28;20107;-82
2022/03/29 09:38:47;;;;;;;45.38;24.15;;;9.30;99.90;;;;;;5015858;28;20429;-82
2022/03/29 09:41:32;;;;;;;44.80;24.92;;;9.50;99.90;;;;;;5031363;28;20088;-82
2022/03/29 09:44:10;;;;;;;39.35;22.75;;;9.70;99.90;;;;;;5030917;28;20504;-82
2022/03/29 09:46:57;;;;;;;46.00;23.15;;;9.70;99.90;;;;;;5050709;28;20025;-82
2022/03/29 09:49:23;;;;;;;31.25;20.05;;;9.80;99.90;;;;;;5039321;28;20076;-83
2022/03/29 09:52:14;;;;;;;40.13;21.65;;;10.10;99.90;;;;;;5027651;28;20076;-82
2022/03/29 09:54:39;;;;;;;39.88;22.27;;;10.20;99.90;;;;;;5020706;28;20139;-82
2022/03/29 09:57:05;;;;;;;38.33;21.85;;;10.30;99.90;;;;;;5032224;28;20041;-81
2022/03/29 09:59:36;;;;;;;38.25;20.92;;;10.20;99.90;;;;;;5015478;28;20049;-81
2022/03/29 10:02:02;;;;;;;36.38;20.92;;;10.20;99.90;;;;;;5016306;28;20049;-82
2022/03/29 10:04:29;;;;;;;33.90;21.48;;;10.20;99.90;;;;;;4998348;28;20053;-82
2022/03/29 10:06:56;;;;;;;31.70;19.73;;;10.20;99.90;;;;;;5015926;28;20137;-82
2022/03/29 10:09:30;;;;;;;35.35;20.52;;;10.60;99.90;;;;;;5031046;28;20054;-82
2022/03/29 10:12:04;;;;;;;41.60;21.75;;;10.60;99.90;;;;;;5031281;28;20049;-82
2022/03/29 10:14:34;;;;;;;33.47;19.07;;;10.70;99.90;;;;;;5015043;28;20043;-82
2022/03/29 10:17:00;;;;;;;39.95;21.60;;;10.90;99.90;;;;;;4999465;28;20311;-82
2022/03/29 10:19:26;;;;;;;35.28;21.35;;;11.20;99.90;;;;;;5030888;28;20049;-81
2022/03/29 10:21:57;;;;;;;34.75;20.70;;;11.10;99.90;;;;;;5015167;28;20111;-81
2022/03/29 10:24:23;;;;;;;36.25;19.50;;;11.00;99.90;;;;;;5031008;28;20060;-81
2022/03/29 10:26:51;;;;;;;30.25;14.80;;;11.40;99.90;;;;;;4998627;28;20053;-82
2022/03/29 10:29:17;;;;;;;30.33;15.80;;;12.00;99.90;;;;;;5031281;28;20057;-81
2022/03/29 10:31:55;;;;;;;37.70;18.52;;;11.90;99.90;;;;;;5031220;28;20092;-81
2022/03/29 10:34:25;;;;;;;31.38;17.85;;;11.90;99.90;;;;;;5031074;28;20053;-81
2022/03/29 10:37:09;;;;;;;32.03;17.85;;;11.60;99.90;;;;;;5032927;28;20037;-81
2022/03/29 10:39:45;;;;;;;30.90;17.43;;;11.60;99.90;;;;;;5035581;28;20053;-81
2022/03/29 10:42:39;;;;;;;30.98;17.60;;;12.20;99.90;;;;;;5019817;28;20053;-82
2022/03/29 10:45:14;;;;;;;28.42;17.52;;;12.30;99.90;;;;;;5009426;28;20518;-81
2022/03/29 10:47:41;;;;;;;30.17;17.63;;;12.10;99.90;;;;;;5001621;28;20100;-81
2022/03/29 10:50:10;;;;;;;30.25;16.92;;;12.10;99.90;;;;;;4995375;28;20053;-81
2022/03/29 10:52:42;;;;;;;26.92;16.65;;;12.30;99.90;;;;;;5011294;28;20061;-81
2022/03/29 10:55:18;;;;;;;31.58;16.60;;;11.60;99.90;;;;;;4979156;28;20111;-82
2022/03/29 10:58:12;;;;;;;31.88;15.73;;;11.90;99.90;;;;;;5008561;28;20080;-82
2022/03/29 11:00:40;;;;;;;26.02;13.35;;;11.90;99.90;;;;;;5006859;28;20056;-81
2022/03/29 11:03:13;;;;;;;31.05;16.02;;;12.40;99.90;;;;;;5011336;28;20379;-82
2022/03/29 11:06:12;;;;;;;30.42;14.98;;;12.20;99.90;;;;;;5011224;28;20041;-82
2022/03/29 11:08:45;;;;;;;27.60;15.23;;;13.10;99.90;;;;;;5011334;28;20089;-82
2022/03/29 11:11:37;;;;;;;31.95;15.13;;;13.10;99.90;;;;;;4997214;28;20091;-81
2022/03/29 11:14:30;;;;;;;34.13;15.68;;;12.50;99.90;;;;;;5026396;28;20076;-82
2022/03/29 11:17:16;;;;;;;29.00;13.90;;;12.60;99.90;;;;;;5008330;28;20474;-82
2022/03/29 11:20:01;;;;;;;25.85;13.98;;;12.20;99.90;;;;;;4998971;28;20045;-82
2022/03/29 11:22:32;;;;;;;34.33;14.35;;;12.40;99.90;;;;;;5017889;28;20060;-83
2022/03/29 11:25:03;;;;;;;25.17;13.63;;;12.60;99.90;;;;;;5025791;28;20057;-82
2022/03/29 11:27:32;;;;;;;29.23;13.45;;;12.70;99.90;;;;;;4996653;28;20041;-82
2022/03/29 11:29:58;;;;;;;24.88;11.93;;;13.10;99.90;;;;;;5013435;28;20146;-83
2022/03/29 11:32:24;;;;;;;24.88;12.15;;;12.80;99.90;;;;;;5029130;28;20505;-82
2022/03/29 11:34:57;;;;;;;24.25;12.65;;;12.40;99.90;;;;;;5029610;28;20041;-83
2022/03/29 11:37:27;;;;;;;27.67;11.75;;;12.20;99.90;;;;;;5006704;28;20053;-83
2022/03/29 11:39:52;;;;;;;25.27;12.02;;;12.60;99.90;;;;;;5013319;28;20068;-83
2022/03/29 11:42:23;;;;;;;25.33;12.63;;;12.60;99.90;;;;;;5010901;28;20062;-83
2022/03/29 11:44:49;;;;;;;23.77;12.95;;;12.80;99.90;;;;;;5032776;28;20081;-83
2022/03/29 11:47:15;;;;;;;23.20;12.48;;;12.40;99.90;;;;;;4985986;28;20053;-84
2022/03/29 11:49:42;;;;;;;28.27;13.70;;;12.30;99.90;;;;;;5026422;28;20509;-82
2022/03/29 11:52:11;;;;;;;20.00;7.68;;;12.20;99.90;;;;;;4999799;28;20053;-84
2022/03/29 11:54:47;;;;;;;25.52;12.73;;;12.90;99.90;;;;;;5017069;28;20134;-81
2022/03/29 11:57:25;;;;;;;24.50;12.07;;;12.90;99.90;;;;;;5009963;28;20080;-83
2022/03/29 11:59:51;;;;;;;22.05;11.00;;;12.60;99.90;;;;;;5014635;28;20460;-83
2022/03/29 12:02:23;;;;;;;26.15;11.95;;;13.20;99.90;;;;;;4998814;28;20112;-83
2022/03/29 12:04:51;;;;;;;27.30;12.80;;;13.10;99.90;;;;;;5014960;28;20064;-83
2022/03/29 12:07:17;;;;;;;22.38;12.13;;;12.80;99.90;;;;;;5011669;28;20048;-83
2022/03/29 12:09:47;;;;;;;29.13;12.68;;;12.60;99.90;;;;;;5040067;28;20052;-81
2022/03/29 12:12:12;;;;;;;26.27;12.13;;;12.90;99.90;;;;;;5054061;28;20087;-82
2022/03/29 12:14:38;;;;;;;23.25;11.73;;;13.20;99.90;;;;;;5002695;28;20057;-82
2022/03/29 12:17:06;;;;;;;22.88;9.38;;;13.20;99.90;;;;;;5017965;28;20112;-83
2022/03/29 12:19:32;;;;;;;19.17;9.05;;;13.20;99.90;;;;;;5017575;28;20103;-83
2022/03/29 12:22:02;;;;;;;20.33;10.18;;;13.30;99.90;;;;;;5006072;28;20077;-83
2022/03/29 12:24:36;;;;;;;21.77;10.70;;;13.10;99.90;;;;;;5018071;28;20053;-83
2022/03/29 12:27:16;;;;;;;26.35;10.75;;;12.90;99.90;;;;;;5001361;28;20048;-84
2022/03/29 12:29:53;;;;;;;23.23;10.73;;;12.80;99.90;;;;;;5002186;28;20516;-83
2022/03/29 12:32:19;;;;;;;23.92;12.15;;;12.60;99.90;;;;;;5002473;28;20083;-83
2022/03/29 12:34:52;;;;;;;20.02;9.00;;;12.40;99.90;;;;;;4999965;28;20049;-83
2022/03/29 12:37:18;;;;;;;22.58;11.32;;;13.00;99.90;;;;;;5001566;28;20049;-82
2022/03/29 12:39:44;;;;;;;17.33;7.55;;;13.10;99.90;;;;;;5031513;28;20116;-83
2022/03/29 12:42:11;;;;;;;10.07;5.25;;;13.40;99.90;;;;;;5000359;28;20081;-82
2022/03/29 12:44:46;;;;;;;22.95;11.27;;;13.70;99.90;;;;;;5049532;28;20053;-84
2022/03/29 12:47:13;;;;;;;25.10;10.07;;;13.10;99.90;;;;;;5018352;28;20501;-84